EDT,Max TemperatureF,Mean TemperatureF,Min TemperatureF,Max Dew PointF,MeanDew PointF,Min DewpointF,Max Humidity, Mean Humidity, Min Humidity, Max Sea Level PressureIn, Mean Sea Level PressureIn, Min Sea Level PressureIn, Max VisibilityMiles, Mean VisibilityMiles, Min VisibilityMiles, Max Wind SpeedMPH, Mean Wind SpeedMPH, Max Gust SpeedMPH,PrecipitationIn, CloudCover, Events, WindDirDegrees
2013-8-1,75,70,64,66,63,57,88,76,64,29.94,29.92,29.89,10,7,6,14,9,,0.00,6,Rain,298
2013-8-2,75,68,62,66,59,54,94,68,50,29.98,29.94,29.90,10,10,4,16,9,,0.00,6,Rain,261
2013-8-3,75,70,62,64,59,54,88,65,47,30.02,30.00,29.96,10,10,7,9,8,,0.00,4,,341
2013-8-4,69,66,62,59,55,50,72,65,56,30.14,30.12,30.07,10,10,10,12,10,,0.00,5,,336
2013-8-5,73,62,51,55,53,50,94,63,46,30.15,30.09,30.04,20,16,10,8,3,,0.00,5,,59
2013-8-6,78,70,62,61,59,55,82,61,47,30.04,30.00,29.97,20,15,10,12,9,,0.00,5,,168
2013-8-7,82,75,68,72,67,61,94,77,62,29.97,29.93,29.89,20,8,2,12,9,23,0.00,7,Rain,194
2013-8-8,80,76,71,73,71,66,94,85,78,29.99,29.96,29.95,7,5,3,9,6,,0.00,8,,3
2013-8-9,73,70,62,68,61,50,100,76,44,30.02,29.98,29.94,10,9,6,9,5,,0.00,6,Rain,317
2013-8-10,77,70,62,63,58,54,94,65,47,30.14,30.12,30.09,15,11,10,12,6,,0.00,6,,49
2013-8-11,80,71,62,59,57,54,88,59,44,30.16,30.11,30.06,10,10,10,12,7,,0.00,4,,77
2013-8-12,77,72,66,68,64,59,88,76,61,30.06,29.99,29.86,15,10,6,9,6,,0.00,7,,229
2013-8-13,68,65,62,66,56,46,94,72,52,30.01,29.94,29.84,20,13,7,17,11,,0.00,6,,346
2013-8-14,68,62,55,54,51,50,88,66,52,30.17,30.13,30.06,20,14,10,14,10,,0.00,6,,346
2013-8-15,73,66,57,54,52,50,88,60,50,30.20,30.17,30.14,20,15,10,9,7,,0.00,5,,286
2013-8-16,75,63,51,59,55,50,94,64,46,30.22,30.20,30.17,20,12,10,9,7,,0.00,5,,62
2013-8-17,78,68,57,61,57,54,94,60,44,30.26,30.24,30.22,10,10,10,9,7,,0.00,5,,105
2013-8-18,77,68,59,64,61,55,88,71,57,30.24,30.19,30.15,10,10,10,8,6,,0.00,6,,87
2013-8-19,78,71,64,68,62,54,94,70,47,30.16,30.13,30.10,10,7,5,12,6,,0.00,3,,284
2013-8-20,82,75,68,64,61,59,73,59,45,30.20,30.17,30.14,20,12,6,10,6,,0.00,1,,300
2013-8-21,86,74,62,66,63,59,88,60,40,30.21,30.14,30.07,10,9,7,9,6,,0.00,3,,225
2013-8-22,82,76,69,72,68,66,89,76,61,30.08,30.04,30.01,7,7,6,16,10,,0.00,6,Rain,275
2013-8-23,80,71,62,70,59,50,94,60,34,30.19,30.13,30.07,20,13,10,14,8,,0.00,1,,55
2013-8-24,80,70,60,59,56,52,82,57,39,30.34,30.31,30.28,20,15,10,12,8,,0.00,1,,70
2013-8-25,84,72,59,63,59,54,82,53,42,30.35,30.29,30.22,20,12,10,12,7,,0.00,2,,259
2013-8-26,87,78,69,68,63,59,69,55,45,30.20,30.11,30.02,10,10,10,17,11,,0.00,6,,249
2013-8-27,80,76,71,73,72,70,100,85,78,30.04,29.97,29.92,15,8,1,17,9,,0.00,8,Rain,256
2013-8-28,78,76,73,73,73,72,94,90,83,30.04,29.91,29.84,7,6,4,14,10,,0.00,7,Rain,333
2013-8-29,82,76,69,72,69,66,94,76,58,30.09,30.06,30.03,20,10,2,12,8,,0.00,3,,38
2013-8-30,86,78,69,72,68,66,88,67,58,30.01,29.92,29.83,10,7,6,12,9,,0.00,4,,243
2013-8-31,78,74,69,72,70,68,100,84,74,29.86,29.84,29.80,7,6,6,13,6,,0.00,6,,327